createdAt,value
2018-07-15T22:00:32.141Z,7.28
2018-07-15T22:03:00.639Z,7.43
2018-07-15T22:05:29.377Z,7.13
2018-07-15T22:08:09.791Z,6.23
2018-07-15T22:10:41.794Z,8.07
2018-07-15T22:13:09.744Z,7.73
2018-07-15T22:15:37.969Z,7.73
2018-07-15T22:18:05.504Z,7.90
2018-07-15T22:20:34.089Z,8.20
2018-07-15T22:23:02.296Z,8.27
2018-07-15T22:25:31.552Z,7.30
2018-07-15T22:27:59.574Z,8.40
2018-07-15T22:30:28.111Z,7.80
2018-07-15T22:32:56.883Z,8.30
2018-07-15T22:35:26.508Z,8.30
2018-07-15T22:37:55.528Z,8.60
2018-07-15T22:40:24.042Z,9.07
2018-07-15T22:42:52.429Z,8.53
2018-07-15T22:45:21.050Z,8.90
2018-07-15T22:47:49.166Z,8.87
2018-07-15T22:50:18.245Z,8.70
2018-07-15T22:52:45.789Z,8.47
2018-07-15T22:55:13.781Z,8.80
2018-07-15T22:57:41.968Z,9.00
2018-07-15T23:00:13.404Z,8.97
2018-07-15T23:02:42.632Z,8.97
2018-07-15T23:05:47.994Z,10.07
2018-07-15T23:08:16.415Z,8.73
2018-07-15T23:10:44.536Z,9.40
2018-07-15T23:13:13.668Z,8.90
2018-07-15T23:15:42.517Z,7.97
2018-07-15T23:18:10.921Z,8.10
2018-07-15T23:20:40.043Z,8.27
2018-07-15T23:23:09.412Z,8.67
2018-07-15T23:25:38.478Z,8.70
2018-07-15T23:28:08.058Z,8.37
2018-07-15T23:30:37.004Z,9.23
2018-07-15T23:33:06.009Z,9.33
2018-07-15T23:35:34.185Z,8.90
2018-07-15T23:38:01.857Z,9.50
2018-07-15T23:40:29.855Z,8.80
2018-07-15T23:42:59.948Z,8.90
2018-07-15T23:45:29.774Z,8.17
2018-07-15T23:47:57.569Z,9.00
2018-07-15T23:50:25.214Z,9.10
2018-07-15T23:52:53.248Z,9.70
2018-07-15T23:55:21.915Z,8.53
2018-07-15T23:57:50.584Z,9.03
